sensor_id;sensor_type;location;lat;lon;timestamp;P1;durP1;ratioP1;P2;durP2;ratioP2
5811;SDS011;2932;52.400;9.558;2023-04-28T00:00:50;3.57;;;1.90;;
5811;SDS011;2932;52.400;9.558;2023-04-28T00:03:15;4.47;;;2.03;;
5811;SDS011;2932;52.400;9.558;2023-04-28T00:05:41;2.90;;;1.70;;
5811;SDS011;2932;52.400;9.558;2023-04-28T00:08:07;3.73;;;1.73;;
5811;SDS011;2932;52.400;9.558;2023-04-28T00:10:32;3.00;;;1.90;;
5811;SDS011;2932;52.400;9.558;2023-04-28T00:12:58;3.43;;;1.60;;
5811;SDS011;2932;52.400;9.558;2023-04-28T00:15:24;2.83;;;2.00;;
5811;SDS011;2932;52.400;9.558;2023-04-28T00:17:50;4.00;;;2.07;;
5811;SDS011;2932;52.400;9.558;2023-04-28T00:20:15;6.63;;;1.83;;
5811;SDS011;2932;52.400;9.558;2023-04-28T00:22:40;3.40;;;2.00;;
5811;SDS011;2932;52.400;9.558;2023-04-28T00:25:06;3.13;;;1.70;;
5811;SDS011;2932;52.400;9.558;2023-04-28T00:27:32;4.50;;;2.40;;
5811;SDS011;2932;52.400;9.558;2023-04-28T00:29:58;6.53;;;2.13;;
5811;SDS011;2932;52.400;9.558;2023-04-28T00:32:23;5.43;;;2.40;;
5811;SDS011;2932;52.400;9.558;2023-04-28T00:34:49;2.50;;;2.00;;
5811;SDS011;2932;52.400;9.558;2023-04-28T00:37:14;4.33;;;3.17;;
5811;SDS011;2932;52.400;9.558;2023-04-28T00:39:39;2.37;;;1.97;;
5811;SDS011;2932;52.400;9.558;2023-04-28T00:42:05;4.17;;;2.10;;
5811;SDS011;2932;52.400;9.558;2023-04-28T00:44:31;2.83;;;2.10;;
5811;SDS011;2932;52.400;9.558;2023-04-28T00:46:57;5.10;;;2.57;;
5811;SDS011;2932;52.400;9.558;2023-04-28T00:49:23;4.00;;;2.20;;
5811;SDS011;2932;52.400;9.558;2023-04-28T00:51:50;7.47;;;2.27;;
5811;SDS011;2932;52.400;9.558;2023-04-28T00:54:15;3.77;;;2.33;;
5811;SDS011;2932;52.400;9.558;2023-04-28T00:56:41;3.27;;;2.37;;
5811;SDS011;2932;52.400;9.558;2023-04-28T00:59:08;4.53;;;2.20;;
5811;SDS011;2932;52.400;9.558;2023-04-28T01:01:34;2.63;;;2.10;;
5811;SDS011;2932;52.400;9.558;2023-04-28T01:04:00;4.43;;;2.13;;
5811;SDS011;2932;52.400;9.558;2023-04-28T01:06:26;4.00;;;2.00;;
5811;SDS011;2932;52.400;9.558;2023-04-28T01:08:52;3.13;;;2.00;;
5811;SDS011;2932;52.400;9.558;2023-04-28T01:11:18;5.27;;;2.50;;
5811;SDS011;2932;52.400;9.558;2023-04-28T01:13:43;2.33;;;2.13;;
5811;SDS011;2932;52.400;9.558;2023-04-28T01:16:09;3.67;;;2.13;;
5811;SDS011;2932;52.400;9.558;2023-04-28T01:18:35;5.53;;;2.03;;
5811;SDS011;2932;52.400;9.558;2023-04-28T01:21:00;3.47;;;2.07;;
5811;SDS011;2932;52.400;9.558;2023-04-28T01:23:28;6.33;;;2.27;;
5811;SDS011;2932;52.400;9.558;2023-04-28T01:25:53;2.27;;;1.97;;
5811;SDS011;2932;52.400;9.558;2023-04-28T01:28:18;8.40;;;2.60;;
5811;SDS011;2932;52.400;9.558;2023-04-28T01:30:44;4.23;;;2.03;;
5811;SDS011;2932;52.400;9.558;2023-04-28T01:33:09;4.87;;;2.23;;
5811;SDS011;2932;52.400;9.558;2023-04-28T01:35:35;4.47;;;2.30;;
5811;SDS011;2932;52.400;9.558;2023-04-28T01:38:00;5.07;;;2.23;;
5811;SDS011;2932;52.400;9.558;2023-04-28T01:40:26;5.20;;;2.27;;
5811;SDS011;2932;52.400;9.558;2023-04-28T01:42:51;3.43;;;2.30;;
5811;SDS011;2932;52.400;9.558;2023-04-28T01:45:16;5.03;;;2.43;;
5811;SDS011;2932;52.400;9.558;2023-04-28T01:47:42;5.43;;;2.70;;
5811;SDS011;2932;52.400;9.558;2023-04-28T01:50:07;5.93;;;2.27;;
5811;SDS011;2932;52.400;9.558;2023-04-28T01:52:33;5.23;;;2.70;;
5811;SDS011;2932;52.400;9.558;2023-04-28T01:54:58;4.37;;;2.40;;
5811;SDS011;2932;52.400;9.558;2023-04-28T01:57:24;3.17;;;2.30;;
5811;SDS011;2932;52.400;9.558;2023-04-28T01:59:50;3.77;;;2.47;;
5811;SDS011;2932;52.400;9.558;2023-04-28T02:02:15;4.60;;;2.30;;
5811;SDS011;2932;52.400;9.558;2023-04-28T02:04:40;5.37;;;2.50;;
5811;SDS011;2932;52.400;9.558;2023-04-28T02:07:06;6.33;;;2.50;;
5811;SDS011;2932;52.400;9.558;2023-04-28T02:09:31;4.10;;;2.30;;
5811;SDS011;2932;52.400;9.558;2023-04-28T02:11:57;4.33;;;2.53;;
5811;SDS011;2932;52.400;9.558;2023-04-28T02:14:24;5.20;;;2.67;;
5811;SDS011;2932;52.400;9.558;2023-04-28T02:16:49;3.03;;;2.37;;
5811;SDS011;2932;52.400;9.558;2023-04-28T02:19:15;3.60;;;2.30;;
5811;SDS011;2932;52.400;9.558;2023-04-28T02:21:40;6.47;;;2.40;;
5811;SDS011;2932;52.400;9.558;2023-04-28T02:24:06;4.20;;;2.63;;
5811;SDS011;2932;52.400;9.558;2023-04-28T02:26:32;5.43;;;2.30;;
5811;SDS011;2932;52.400;9.558;2023-04-28T02:28:58;5.30;;;2.57;;
5811;SDS011;2932;52.400;9.558;2023-04-28T02:31:24;6.73;;;2.50;;
5811;SDS011;2932;52.400;9.558;2023-04-28T02:33:49;4.30;;;2.83;;
5811;SDS011;2932;52.400;9.558;2023-04-28T02:36:15;4.10;;;2.53;;
5811;SDS011;2932;52.400;9.558;2023-04-28T02:38:40;5.17;;;2.60;;
5811;SDS011;2932;52.400;9.558;2023-04-28T02:41:06;5.97;;;2.93;;
5811;SDS011;2932;52.400;9.558;2023-04-28T02:43:33;4.27;;;2.50;;
5811;SDS011;2932;52.400;9.558;2023-04-28T02:46:00;6.13;;;2.53;;
5811;SDS011;2932;52.400;9.558;2023-04-28T02:48:26;6.63;;;3.00;;
5811;SDS011;2932;52.400;9.558;2023-04-28T02:50:52;4.87;;;2.60;;
5811;SDS011;2932;52.400;9.558;2023-04-28T02:53:21;4.17;;;2.73;;
5811;SDS011;2932;52.400;9.558;2023-04-28T02:55:46;4.53;;;3.20;;
5811;SDS011;2932;52.400;9.558;2023-04-28T02:58:12;6.57;;;2.83;;
5811;SDS011;2932;52.400;9.558;2023-04-28T03:00:37;6.27;;;2.70;;
5811;SDS011;2932;52.400;9.558;2023-04-28T03:03:03;9.97;;;2.53;;
5811;SDS011;2932;52.400;9.558;2023-04-28T03:05:28;6.00;;;2.80;;
5811;SDS011;2932;52.400;9.558;2023-04-28T03:07:53;5.00;;;2.70;;
5811;SDS011;2932;52.400;9.558;2023-04-28T03:10:19;4.53;;;2.70;;
5811;SDS011;2932;52.400;9.558;2023-04-28T03:12:44;5.03;;;2.70;;
5811;SDS011;2932;52.400;9.558;2023-04-28T03:15:10;8.57;;;3.20;;
5811;SDS011;2932;52.400;9.558;2023-04-28T03:17:35;7.30;;;2.97;;
5811;SDS011;2932;52.400;9.558;2023-04-28T03:20:03;5.87;;;2.80;;
5811;SDS011;2932;52.400;9.558;2023-04-28T03:22:29;7.20;;;2.70;;
5811;SDS011;2932;52.400;9.558;2023-04-28T03:24:54;5.90;;;2.50;;
5811;SDS011;2932;52.400;9.558;2023-04-28T03:27:20;5.60;;;3.03;;
5811;SDS011;2932;52.400;9.558;2023-04-28T03:29:46;6.90;;;3.00;;
5811;SDS011;2932;52.400;9.558;2023-04-28T03:32:11;4.43;;;2.70;;
5811;SDS011;2932;52.400;9.558;2023-04-28T03:34:36;4.53;;;2.70;;
5811;SDS011;2932;52.400;9.558;2023-04-28T03:37:02;7.00;;;3.10;;
5811;SDS011;2932;52.400;9.558;2023-04-28T03:39:27;5.47;;;2.80;;
5811;SDS011;2932;52.400;9.558;2023-04-28T03:41:52;4.53;;;3.00;;
5811;SDS011;2932;52.400;9.558;2023-04-28T03:44:17;6.23;;;2.70;;
5811;SDS011;2932;52.400;9.558;2023-04-28T03:46:43;5.17;;;3.67;;
5811;SDS011;2932;52.400;9.558;2023-04-28T03:49:08;6.87;;;2.87;;
5811;SDS011;2932;52.400;9.558;2023-04-28T03:51:33;7.23;;;2.30;;
5811;SDS011;2932;52.400;9.558;2023-04-28T03:53:59;5.07;;;3.07;;
5811;SDS011;2932;52.400;9.558;2023-04-28T03:56:27;2.77;;;2.47;;
5811;SDS011;2932;52.400;9.558;2023-04-28T03:58:52;6.40;;;2.80;;
5811;SDS011;2932;52.400;9.558;2023-04-28T04:01:17;7.93;;;3.13;;
5811;SDS011;2932;52.400;9.558;2023-04-28T04:03:43;3.90;;;2.67;;
5811;SDS011;2932;52.400;9.558;2023-04-28T04:06:08;6.73;;;3.30;;
5811;SDS011;2932;52.400;9.558;2023-04-28T04:08:34;4.33;;;2.80;;
5811;SDS011;2932;52.400;9.558;2023-04-28T04:10:59;9.53;;;2.90;;
5811;SDS011;2932;52.400;9.558;2023-04-28T04:13:25;4.90;;;2.80;;
5811;SDS011;2932;52.400;9.558;2023-04-28T04:15:50;3.80;;;2.70;;
5811;SDS011;2932;52.400;9.558;2023-04-28T04:18:16;8.80;;;2.70;;
5811;SDS011;2932;52.400;9.558;2023-04-28T04:20:42;3.60;;;2.50;;
5811;SDS011;2932;52.400;9.558;2023-04-28T04:23:07;10.30;;;3.23;;
5811;SDS011;2932;52.400;9.558;2023-04-28T04:25:35;6.13;;;3.20;;
5811;SDS011;2932;52.400;9.558;2023-04-28T04:28:03;3.70;;;3.00;;
5811;SDS011;2932;52.400;9.558;2023-04-28T04:30:28;4.47;;;3.13;;
5811;SDS011;2932;52.400;9.558;2023-04-28T04:32:54;6.57;;;2.73;;
5811;SDS011;2932;52.400;9.558;2023-04-28T04:35:19;9.13;;;3.27;;
5811;SDS011;2932;52.400;9.558;2023-04-28T04:37:45;5.93;;;2.90;;
5811;SDS011;2932;52.400;9.558;2023-04-28T04:40:13;5.83;;;2.90;;
5811;SDS011;2932;52.400;9.558;2023-04-28T04:42:38;7.83;;;3.43;;
5811;SDS011;2932;52.400;9.558;2023-04-28T04:45:03;7.13;;;2.73;;
5811;SDS011;2932;52.400;9.558;2023-04-28T04:47:29;3.60;;;2.80;;
5811;SDS011;2932;52.400;9.558;2023-04-28T04:49:55;3.97;;;2.83;;
5811;SDS011;2932;52.400;9.558;2023-04-28T04:52:23;5.07;;;2.97;;
5811;SDS011;2932;52.400;9.558;2023-04-28T04:54:49;5.10;;;2.93;;
5811;SDS011;2932;52.400;9.558;2023-04-28T04:57:14;4.97;;;3.00;;
5811;SDS011;2932;52.400;9.558;2023-04-28T04:59:40;4.97;;;3.13;;
5811;SDS011;2932;52.400;9.558;2023-04-28T05:02:05;4.93;;;2.90;;
5811;SDS011;2932;52.400;9.558;2023-04-28T05:04:30;9.17;;;3.23;;
5811;SDS011;2932;52.400;9.558;2023-04-28T05:06:56;7.17;;;2.97;;
5811;SDS011;2932;52.400;9.558;2023-04-28T05:09:21;6.13;;;3.50;;
5811;SDS011;2932;52.400;9.558;2023-04-28T05:11:47;8.80;;;3.50;;
5811;SDS011;2932;52.400;9.558;2023-04-28T05:14:13;6.60;;;3.07;;
5811;SDS011;2932;52.400;9.558;2023-04-28T05:16:38;10.80;;;3.57;;
5811;SDS011;2932;52.400;9.558;2023-04-28T05:19:04;4.87;;;3.17;;
5811;SDS011;2932;52.400;9.558;2023-04-28T05:21:29;7.27;;;2.93;;
5811;SDS011;2932;52.400;9.558;2023-04-28T05:23:55;6.20;;;3.20;;
5811;SDS011;2932;52.400;9.558;2023-04-28T05:26:21;5.77;;;3.00;;
5811;SDS011;2932;52.400;9.558;2023-04-28T05:28:47;5.53;;;3.40;;
5811;SDS011;2932;52.400;9.558;2023-04-28T05:31:12;7.67;;;3.50;;
5811;SDS011;2932;52.400;9.558;2023-04-28T05:33:37;6.30;;;3.40;;
5811;SDS011;2932;52.400;9.558;2023-04-28T05:36:03;5.33;;;2.90;;
5811;SDS011;2932;52.400;9.558;2023-04-28T05:38:28;6.70;;;3.00;;
5811;SDS011;2932;52.400;9.558;2023-04-28T05:40:55;6.23;;;3.43;;
5811;SDS011;2932;52.400;9.558;2023-04-28T05:43:21;5.43;;;3.47;;
5811;SDS011;2932;52.400;9.558;2023-04-28T05:45:46;6.30;;;3.60;;
5811;SDS011;2932;52.400;9.558;2023-04-28T05:48:11;5.83;;;3.30;;
5811;SDS011;2932;52.400;9.558;2023-04-28T05:50:37;5.40;;;2.90;;
5811;SDS011;2932;52.400;9.558;2023-04-28T05:53:02;7.30;;;3.90;;
5811;SDS011;2932;52.400;9.558;2023-04-28T05:55:28;6.50;;;3.20;;
5811;SDS011;2932;52.400;9.558;2023-04-28T05:57:54;6.57;;;3.23;;
5811;SDS011;2932;52.400;9.558;2023-04-28T06:00:19;6.53;;;4.20;;
5811;SDS011;2932;52.400;9.558;2023-04-28T06:02:45;5.43;;;3.23;;
5811;SDS011;2932;52.400;9.558;2023-04-28T06:05:11;8.87;;;3.30;;
5811;SDS011;2932;52.400;9.558;2023-04-28T06:07:36;7.37;;;3.57;;
5811;SDS011;2932;52.400;9.558;2023-04-28T06:10:01;10.37;;;4.07;;
5811;SDS011;2932;52.400;9.558;2023-04-28T06:12:27;8.00;;;3.70;;
5811;SDS011;2932;52.400;9.558;2023-04-28T06:14:52;5.40;;;3.50;;
5811;SDS011;2932;52.400;9.558;2023-04-28T06:17:19;9.13;;;4.07;;
5811;SDS011;2932;52.400;9.558;2023-04-28T06:19:45;6.60;;;3.13;;
5811;SDS011;2932;52.400;9.558;2023-04-28T06:22:10;8.90;;;3.73;;
5811;SDS011;2932;52.400;9.558;2023-04-28T06:24:35;7.20;;;3.37;;
5811;SDS011;2932;52.400;9.558;2023-04-28T06:27:01;6.10;;;3.60;;
5811;SDS011;2932;52.400;9.558;2023-04-28T06:29:26;4.30;;;3.20;;
5811;SDS011;2932;52.400;9.558;2023-04-28T06:31:52;7.23;;;3.57;;
5811;SDS011;2932;52.400;9.558;2023-04-28T06:34:21;10.97;;;4.63;;
5811;SDS011;2932;52.400;9.558;2023-04-28T06:36:47;8.33;;;4.23;;
5811;SDS011;2932;52.400;9.558;2023-04-28T06:39:12;6.30;;;4.30;;
5811;SDS011;2932;52.400;9.558;2023-04-28T06:41:37;6.47;;;3.70;;
5811;SDS011;2932;52.400;9.558;2023-04-28T06:44:03;9.00;;;4.57;;
5811;SDS011;2932;52.400;9.558;2023-04-28T06:46:29;8.67;;;3.97;;
5811;SDS011;2932;52.400;9.558;2023-04-28T06:48:55;7.07;;;3.57;;
5811;SDS011;2932;52.400;9.558;2023-04-28T06:51:20;7.70;;;3.67;;
5811;SDS011;2932;52.400;9.558;2023-04-28T06:53:46;8.33;;;4.23;;
5811;SDS011;2932;52.400;9.558;2023-04-28T06:56:11;7.77;;;4.33;;
5811;SDS011;2932;52.400;9.558;2023-04-28T06:58:37;7.30;;;4.23;;
5811;SDS011;2932;52.400;9.558;2023-04-28T07:01:03;9.73;;;4.17;;
5811;SDS011;2932;52.400;9.558;2023-04-28T07:03:29;6.57;;;3.93;;
5811;SDS011;2932;52.400;9.558;2023-04-28T07:05:55;9.33;;;4.30;;
5811;SDS011;2932;52.400;9.558;2023-04-28T07:08:21;6.10;;;3.97;;
5811;SDS011;2932;52.400;9.558;2023-04-28T07:10:46;4.70;;;3.93;;
5811;SDS011;2932;52.400;9.558;2023-04-28T07:13:12;6.80;;;4.13;;
5811;SDS011;2932;52.400;9.558;2023-04-28T07:15:37;6.47;;;3.83;;
5811;SDS011;2932;52.400;9.558;2023-04-28T07:18:02;9.03;;;3.90;;
5811;SDS011;2932;52.400;9.558;2023-04-28T07:20:28;5.57;;;3.93;;
5811;SDS011;2932;52.400;9.558;2023-04-28T07:22:53;6.83;;;3.90;;
5811;SDS011;2932;52.400;9.558;2023-04-28T07:25:19;9.07;;;4.37;;
5811;SDS011;2932;52.400;9.558;2023-04-28T07:27:44;9.40;;;4.80;;
5811;SDS011;2932;52.400;9.558;2023-04-28T07:30:10;6.87;;;4.40;;
5811;SDS011;2932;52.400;9.558;2023-04-28T07:32:37;7.43;;;4.13;;
5811;SDS011;2932;52.400;9.558;2023-04-28T07:35:02;5.57;;;4.20;;
5811;SDS011;2932;52.400;9.558;2023-04-28T07:37:28;5.87;;;4.30;;
5811;SDS011;2932;52.400;9.558;2023-04-28T07:39:53;10.83;;;4.40;;
5811;SDS011;2932;52.400;9.558;2023-04-28T07:42:20;7.30;;;3.97;;
5811;SDS011;2932;52.400;9.558;2023-04-28T07:44:45;7.50;;;4.53;;
5811;SDS011;2932;52.400;9.558;2023-04-28T07:47:11;7.97;;;4.20;;
5811;SDS011;2932;52.400;9.558;2023-04-28T07:49:36;7.33;;;4.30;;
5811;SDS011;2932;52.400;9.558;2023-04-28T07:52:01;7.33;;;4.23;;
5811;SDS011;2932;52.400;9.558;2023-04-28T07:54:27;6.30;;;4.43;;
5811;SDS011;2932;52.400;9.558;2023-04-28T07:56:52;8.77;;;4.50;;
5811;SDS011;2932;52.400;9.558;2023-04-28T07:59:17;6.97;;;4.67;;
5811;SDS011;2932;52.400;9.558;2023-04-28T08:01:43;6.10;;;4.50;;
5811;SDS011;2932;52.400;9.558;2023-04-28T08:04:08;8.03;;;5.23;;
5811;SDS011;2932;52.400;9.558;2023-04-28T08:06:33;7.07;;;4.57;;
5811;SDS011;2932;52.400;9.558;2023-04-28T08:09:00;11.60;;;4.33;;
5811;SDS011;2932;52.400;9.558;2023-04-28T08:11:26;6.57;;;4.40;;
5811;SDS011;2932;52.400;9.558;2023-04-28T08:13:52;9.83;;;5.23;;
5811;SDS011;2932;52.400;9.558;2023-04-28T08:16:17;9.40;;;5.30;;
5811;SDS011;2932;52.400;9.558;2023-04-28T08:18:43;7.47;;;4.37;;
5811;SDS011;2932;52.400;9.558;2023-04-28T08:21:09;8.53;;;5.37;;
5811;SDS011;2932;52.400;9.558;2023-04-28T08:23:35;8.43;;;4.50;;
5811;SDS011;2932;52.400;9.558;2023-04-28T08:26:00;6.93;;;4.73;;
5811;SDS011;2932;52.400;9.558;2023-04-28T08:28:26;7.80;;;4.57;;
5811;SDS011;2932;52.400;9.558;2023-04-28T08:30:52;7.67;;;4.60;;
5811;SDS011;2932;52.400;9.558;2023-04-28T08:33:19;8.13;;;5.20;;
5811;SDS011;2932;52.400;9.558;2023-04-28T08:35:44;7.30;;;4.60;;
5811;SDS011;2932;52.400;9.558;2023-04-28T08:38:10;10.23;;;5.07;;
5811;SDS011;2932;52.400;9.558;2023-04-28T08:40:38;11.13;;;5.20;;
5811;SDS011;2932;52.400;9.558;2023-04-28T08:43:04;6.33;;;4.50;;
5811;SDS011;2932;52.400;9.558;2023-04-28T08:45:29;7.37;;;4.83;;
5811;SDS011;2932;52.400;9.558;2023-04-28T08:47:55;7.87;;;4.50;;
5811;SDS011;2932;52.400;9.558;2023-04-28T08:50:24;7.70;;;5.03;;
5811;SDS011;2932;52.400;9.558;2023-04-28T08:52:51;7.57;;;5.33;;
5811;SDS011;2932;52.400;9.558;2023-04-28T08:55:17;7.73;;;4.83;;
5811;SDS011;2932;52.400;9.558;2023-04-28T08:57:44;6.57;;;4.63;;
5811;SDS011;2932;52.400;9.558;2023-04-28T09:00:13;7.57;;;5.33;;
5811;SDS011;2932;52.400;9.558;2023-04-28T09:02:38;7.80;;;5.30;;
5811;SDS011;2932;52.400;9.558;2023-04-28T09:05:06;9.27;;;5.10;;
5811;SDS011;2932;52.400;9.558;2023-04-28T09:07:32;8.37;;;4.73;;
5811;SDS011;2932;52.400;9.558;2023-04-28T09:10:14;9.97;;;5.30;;
5811;SDS011;2932;52.400;9.558;2023-04-28T09:12:42;7.40;;;4.73;;
5811;SDS011;2932;52.400;9.558;2023-04-28T09:15:08;8.93;;;5.80;;
5811;SDS011;2932;52.400;9.558;2023-04-28T09:17:48;11.30;;;5.87;;
5811;SDS011;2932;52.400;9.558;2023-04-28T09:20:18;7.90;;;4.80;;
5811;SDS011;2932;52.400;9.558;2023-04-28T09:22:44;9.57;;;4.60;;
5811;SDS011;2932;52.400;9.558;2023-04-28T09:25:10;11.03;;;5.10;;
5811;SDS011;2932;52.400;9.558;2023-04-28T09:27:36;14.30;;;5.23;;
5811;SDS011;2932;52.400;9.558;2023-04-28T09:30:02;9.63;;;5.30;;
5811;SDS011;2932;52.400;9.558;2023-04-28T09:32:28;10.83;;;5.13;;
5811;SDS011;2932;52.400;9.558;2023-04-28T09:34:54;9.00;;;5.40;;
5811;SDS011;2932;52.400;9.558;2023-04-28T09:37:25;7.87;;;5.07;;
5811;SDS011;2932;52.400;9.558;2023-04-28T09:39:54;11.53;;;5.50;;
5811;SDS011;2932;52.400;9.558;2023-04-28T09:42:33;5.30;;;4.77;;
5811;SDS011;2932;52.400;9.558;2023-04-28T09:45:11;7.17;;;5.10;;
5811;SDS011;2932;52.400;9.558;2023-04-28T09:47:42;7.23;;;5.17;;
5811;SDS011;2932;52.400;9.558;2023-04-28T09:50:10;11.47;;;5.90;;
5811;SDS011;2932;52.400;9.558;2023-04-28T09:52:42;11.10;;;6.13;;
5811;SDS011;2932;52.400;9.558;2023-04-28T09:55:10;9.43;;;5.40;;
5811;SDS011;2932;52.400;9.558;2023-04-28T09:57:36;7.97;;;5.60;;
5811;SDS011;2932;52.400;9.558;2023-04-28T10:00:03;8.87;;;5.40;;
5811;SDS011;2932;52.400;9.558;2023-04-28T10:02:31;13.80;;;6.00;;
5811;SDS011;2932;52.400;9.558;2023-04-28T10:04:58;12.50;;;6.07;;
5811;SDS011;2932;52.400;9.558;2023-04-28T10:07:24;9.00;;;5.70;;
5811;SDS011;2932;52.400;9.558;2023-04-28T10:09:50;9.27;;;5.57;;
5811;SDS011;2932;52.400;9.558;2023-04-28T10:12:16;8.40;;;5.63;;
5811;SDS011;2932;52.400;9.558;2023-04-28T10:14:42;10.87;;;5.77;;
5811;SDS011;2932;52.400;9.558;2023-04-28T10:17:09;12.37;;;5.60;;
5811;SDS011;2932;52.400;9.558;2023-04-28T10:19:35;11.00;;;6.10;;
5811;SDS011;2932;52.400;9.558;2023-04-28T10:22:08;10.37;;;5.53;;
5811;SDS011;2932;52.400;9.558;2023-04-28T10:27:32;9.60;;;5.67;;
5811;SDS011;2932;52.400;9.558;2023-04-28T10:30:12;6.83;;;5.27;;
5811;SDS011;2932;52.400;9.558;2023-04-28T10:32:38;9.60;;;5.60;;
5811;SDS011;2932;52.400;9.558;2023-04-28T10:40:42;8.10;;;5.77;;
5811;SDS011;2932;52.400;9.558;2023-04-28T10:43:26;8.83;;;5.73;;
5811;SDS011;2932;52.400;9.558;2023-04-28T10:56:08;7.63;;;5.53;;
5811;SDS011;2932;52.400;9.558;2023-04-28T10:58:55;9.07;;;5.90;;
5811;SDS011;2932;52.400;9.558;2023-04-28T11:06:30;7.43;;;5.77;;
5811;SDS011;2932;52.400;9.558;2023-04-28T11:11:38;10.47;;;5.93;;
5811;SDS011;2932;52.400;9.558;2023-04-28T11:22:00;12.77;;;5.93;;
5811;SDS011;2932;52.400;9.558;2023-04-28T11:24:35;10.27;;;6.33;;
5811;SDS011;2932;52.400;9.558;2023-04-28T11:27:00;9.33;;;6.53;;
5811;SDS011;2932;52.400;9.558;2023-04-28T11:29:29;8.53;;;5.77;;
5811;SDS011;2932;52.400;9.558;2023-04-28T11:31:59;10.73;;;6.30;;
5811;SDS011;2932;52.400;9.558;2023-04-28T11:34:25;9.50;;;5.73;;
5811;SDS011;2932;52.400;9.558;2023-04-28T11:36:51;10.67;;;6.50;;
5811;SDS011;2932;52.400;9.558;2023-04-28T11:39:16;10.03;;;6.07;;
5811;SDS011;2932;52.400;9.558;2023-04-28T11:41:52;8.80;;;6.33;;
5811;SDS011;2932;52.400;9.558;2023-04-28T11:44:18;9.70;;;6.03;;
5811;SDS011;2932;52.400;9.558;2023-04-28T11:46:49;9.07;;;5.27;;
5811;SDS011;2932;52.400;9.558;2023-04-28T11:49:17;10.63;;;5.70;;
5811;SDS011;2932;52.400;9.558;2023-04-28T11:51:43;7.17;;;5.93;;
5811;SDS011;2932;52.400;9.558;2023-04-28T11:54:10;11.97;;;6.63;;
5811;SDS011;2932;52.400;9.558;2023-04-28T11:56:39;9.03;;;5.83;;
5811;SDS011;2932;52.400;9.558;2023-04-28T11:59:09;8.27;;;6.17;;
5811;SDS011;2932;52.400;9.558;2023-04-28T12:01:52;9.27;;;6.10;;
5811;SDS011;2932;52.400;9.558;2023-04-28T12:07:10;6.60;;;5.57;;
5811;SDS011;2932;52.400;9.558;2023-04-28T12:09:38;8.20;;;5.93;;
5811;SDS011;2932;52.400;9.558;2023-04-28T12:12:09;9.13;;;6.13;;
5811;SDS011;2932;52.400;9.558;2023-04-28T12:19:56;8.03;;;5.50;;
5811;SDS011;2932;52.400;9.558;2023-04-28T12:22:23;11.57;;;6.40;;
5811;SDS011;2932;52.400;9.558;2023-04-28T12:25:05;8.23;;;6.17;;
5811;SDS011;2932;52.400;9.558;2023-04-28T12:27:35;9.20;;;6.10;;
5811;SDS011;2932;52.400;9.558;2023-04-28T12:32:46;10.27;;;6.07;;
5811;SDS011;2932;52.400;9.558;2023-04-28T12:35:12;9.93;;;6.77;;
5811;SDS011;2932;52.400;9.558;2023-04-28T12:37:38;12.27;;;6.80;;
5811;SDS011;2932;52.400;9.558;2023-04-28T12:40:05;12.97;;;6.20;;
5811;SDS011;2932;52.400;9.558;2023-04-28T12:42:31;10.30;;;6.67;;
5811;SDS011;2932;52.400;9.558;2023-04-28T12:44:56;7.87;;;6.87;;
5811;SDS011;2932;52.400;9.558;2023-04-28T12:47:22;10.87;;;6.00;;
5811;SDS011;2932;52.400;9.558;2023-04-28T12:49:48;9.80;;;6.77;;
5811;SDS011;2932;52.400;9.558;2023-04-28T12:52:16;8.97;;;6.77;;
5811;SDS011;2932;52.400;9.558;2023-04-28T12:54:42;9.40;;;6.93;;
5811;SDS011;2932;52.400;9.558;2023-04-28T12:57:14;13.57;;;7.57;;
5811;SDS011;2932;52.400;9.558;2023-04-28T12:59:46;9.17;;;6.87;;
5811;SDS011;2932;52.400;9.558;2023-04-28T13:02:12;10.73;;;7.17;;
5811;SDS011;2932;52.400;9.558;2023-04-28T13:04:41;10.53;;;7.37;;
5811;SDS011;2932;52.400;9.558;2023-04-28T13:07:11;11.10;;;7.20;;
5811;SDS011;2932;52.400;9.558;2023-04-28T13:09:37;9.90;;;6.63;;
5811;SDS011;2932;52.400;9.558;2023-04-28T13:12:02;10.97;;;7.07;;
5811;SDS011;2932;52.400;9.558;2023-04-28T13:14:29;10.33;;;7.47;;
5811;SDS011;2932;52.400;9.558;2023-04-28T13:16:55;11.27;;;7.63;;
5811;SDS011;2932;52.400;9.558;2023-04-28T13:19:21;9.70;;;7.07;;
5811;SDS011;2932;52.400;9.558;2023-04-28T13:21:47;12.20;;;7.30;;
5811;SDS011;2932;52.400;9.558;2023-04-28T13:24:12;9.70;;;7.53;;
5811;SDS011;2932;52.400;9.558;2023-04-28T13:26:38;9.70;;;7.37;;
5811;SDS011;2932;52.400;9.558;2023-04-28T13:29:04;10.50;;;7.30;;
5811;SDS011;2932;52.400;9.558;2023-04-28T13:31:29;8.90;;;7.00;;
5811;SDS011;2932;52.400;9.558;2023-04-28T13:33:55;10.57;;;7.27;;
5811;SDS011;2932;52.400;9.558;2023-04-28T13:36:21;11.60;;;7.50;;
5811;SDS011;2932;52.400;9.558;2023-04-28T13:38:47;14.37;;;7.97;;
5811;SDS011;2932;52.400;9.558;2023-04-28T13:41:16;12.17;;;7.50;;
5811;SDS011;2932;52.400;9.558;2023-04-28T13:43:42;9.53;;;7.40;;
5811;SDS011;2932;52.400;9.558;2023-04-28T13:46:08;15.07;;;7.43;;
5811;SDS011;2932;52.400;9.558;2023-04-28T13:48:34;12.47;;;7.70;;
5811;SDS011;2932;52.400;9.558;2023-04-28T13:51:00;10.27;;;7.53;;
5811;SDS011;2932;52.400;9.558;2023-04-28T13:53:29;15.17;;;7.63;;
5811;SDS011;2932;52.400;9.558;2023-04-28T13:55:55;12.20;;;7.97;;
5811;SDS011;2932;52.400;9.558;2023-04-28T13:58:24;13.40;;;7.93;;
5811;SDS011;2932;52.400;9.558;2023-04-28T14:00:50;11.10;;;7.77;;
5811;SDS011;2932;52.400;9.558;2023-04-28T14:03:16;13.77;;;8.63;;
5811;SDS011;2932;52.400;9.558;2023-04-28T14:05:44;15.23;;;9.00;;
5811;SDS011;2932;52.400;9.558;2023-04-28T14:08:09;13.03;;;7.10;;
5811;SDS011;2932;52.400;9.558;2023-04-28T14:10:35;9.43;;;7.37;;
5811;SDS011;2932;52.400;9.558;2023-04-28T14:13:03;11.33;;;7.37;;
5811;SDS011;2932;52.400;9.558;2023-04-28T14:15:29;12.30;;;7.43;;
5811;SDS011;2932;52.400;9.558;2023-04-28T14:17:57;9.50;;;6.90;;
5811;SDS011;2932;52.400;9.558;2023-04-28T14:20:25;7.37;;;6.47;;
5811;SDS011;2932;52.400;9.558;2023-04-28T14:22:51;10.07;;;6.47;;
5811;SDS011;2932;52.400;9.558;2023-04-28T14:25:16;8.90;;;7.03;;
5811;SDS011;2932;52.400;9.558;2023-04-28T14:27:42;8.13;;;6.77;;
5811;SDS011;2932;52.400;9.558;2023-04-28T14:30:08;10.20;;;7.40;;
5811;SDS011;2932;52.400;9.558;2023-04-28T14:32:34;9.13;;;7.50;;
5811;SDS011;2932;52.400;9.558;2023-04-28T14:35:00;10.87;;;7.17;;
5811;SDS011;2932;52.400;9.558;2023-04-28T14:37:29;13.73;;;7.90;;
5811;SDS011;2932;52.400;9.558;2023-04-28T14:39:54;10.47;;;6.97;;
5811;SDS011;2932;52.400;9.558;2023-04-28T14:42:20;10.37;;;6.97;;
5811;SDS011;2932;52.400;9.558;2023-04-28T14:44:46;11.77;;;7.50;;
5811;SDS011;2932;52.400;9.558;2023-04-28T14:47:12;8.30;;;7.30;;
5811;SDS011;2932;52.400;9.558;2023-04-28T14:49:37;9.70;;;7.63;;
5811;SDS011;2932;52.400;9.558;2023-04-28T14:52:03;11.32;;;6.88;;
5811;SDS011;2932;52.400;9.558;2023-04-28T14:54:31;11.43;;;7.00;;
5811;SDS011;2932;52.400;9.558;2023-04-28T14:56:56;9.90;;;6.85;;
5811;SDS011;2932;52.400;9.558;2023-04-28T14:59:22;12.82;;;7.68;;
5811;SDS011;2932;52.400;9.558;2023-04-28T15:01:48;10.15;;;6.75;;
5811;SDS011;2932;52.400;9.558;2023-04-28T15:04:15;12.93;;;7.83;;
5811;SDS011;2932;52.400;9.558;2023-04-28T15:06:41;13.77;;;7.47;;
5811;SDS011;2932;52.400;9.558;2023-04-28T15:09:06;9.23;;;6.77;;
5811;SDS011;2932;52.400;9.558;2023-04-28T15:11:31;10.53;;;7.50;;
5811;SDS011;2932;52.400;9.558;2023-04-28T15:13:57;9.13;;;7.57;;
5811;SDS011;2932;52.400;9.558;2023-04-28T15:16:22;10.00;;;7.53;;
5811;SDS011;2932;52.400;9.558;2023-04-28T15:18:47;10.60;;;7.70;;
5811;SDS011;2932;52.400;9.558;2023-04-28T15:21:13;11.77;;;8.20;;
5811;SDS011;2932;52.400;9.558;2023-04-28T15:23:38;11.43;;;8.07;;
5811;SDS011;2932;52.400;9.558;2023-04-28T15:26:04;11.37;;;7.27;;
5811;SDS011;2932;52.400;9.558;2023-04-28T15:28:30;10.00;;;7.43;;
5811;SDS011;2932;52.400;9.558;2023-04-28T15:30:55;13.10;;;7.70;;
5811;SDS011;2932;52.400;9.558;2023-04-28T15:33:21;10.93;;;7.40;;
5811;SDS011;2932;52.400;9.558;2023-04-28T15:35:48;10.93;;;7.77;;
5811;SDS011;2932;52.400;9.558;2023-04-28T15:38:13;10.07;;;7.40;;
5811;SDS011;2932;52.400;9.558;2023-04-28T15:40:39;10.03;;;7.57;;
5811;SDS011;2932;52.400;9.558;2023-04-28T15:43:05;10.37;;;7.33;;
5811;SDS011;2932;52.400;9.558;2023-04-28T15:45:31;11.23;;;7.33;;
5811;SDS011;2932;52.400;9.558;2023-04-28T15:47:58;11.80;;;7.40;;
5811;SDS011;2932;52.400;9.558;2023-04-28T15:50:24;10.87;;;7.50;;
5811;SDS011;2932;52.400;9.558;2023-04-28T15:52:52;12.50;;;7.20;;